Terminal Aerodrome Forecast
Issued by NWS

Home | Current Version | Previous Version | Text Only | Print | Product List | Glossary On
Versions: 1 2 3 4 5 6 7 8 9 10 11 12 13 14 15 16 17 18 19 20 21 22 23 24 25 26 27 28 29 30 31
000
FTUS41 KBUF 290600 AAA
TAFJHW
TAF AMD
KJHW 290608Z 2906/3006 17006KT 6SM -SN BKN025
      TEMPO 2906/2909 4SM -SN BKN015
     FM291200 17010KT 4SM -SN BKN025
     FM291600 17014KT P6SM VCSH BKN050 OVC120
     FM291700 17015KT P6SM BKN080 BKN120
      AMD LTD TO CLD VIS AND WIND=

USA.gov is the U.S. government's official web portal to all federal, state and local government web resources and services.